createdAt,value
2024-01-25T00:01:20.051Z,20.02
2024-01-25T00:06:12.036Z,20.73
2024-01-25T00:11:04.598Z,18.65
2024-01-25T00:15:59.392Z,20.10
2024-01-25T00:20:51.292Z,18.27
2024-01-25T00:25:43.145Z,17.80
2024-01-25T00:30:35.003Z,21.08
2024-01-25T00:35:27.420Z,19.60
2024-01-25T00:40:20.152Z,20.55
2024-01-25T00:45:12.730Z,18.52
2024-01-25T00:50:05.738Z,20.70
2024-01-25T00:54:58.022Z,19.15
2024-01-25T00:59:50.272Z,19.58
2024-01-25T01:04:47.649Z,20.42
2024-01-25T01:09:40.478Z,18.52
2024-01-25T01:14:32.602Z,19.40
2024-01-25T01:19:24.602Z,17.45
2024-01-25T01:24:16.572Z,19.05
2024-01-25T01:29:08.318Z,17.08
2024-01-25T01:34:00.397Z,17.45
2024-01-25T01:38:52.300Z,18.00
2024-01-25T01:43:44.087Z,17.15
2024-01-25T01:48:35.992Z,18.00
2024-01-25T01:53:28.114Z,17.27
2024-01-25T01:58:22.052Z,19.00
2024-01-25T02:03:14.032Z,16.65
2024-01-25T02:08:06.348Z,15.95
2024-01-25T02:12:58.270Z,16.58
2024-01-25T02:17:50.672Z,16.88
2024-01-25T02:22:42.698Z,16.20
2024-01-25T02:27:39.921Z,18.27
2024-01-25T02:32:31.916Z,16.60
2024-01-25T02:37:23.793Z,16.63
2024-01-25T02:42:18.004Z,16.75
2024-01-25T02:47:10.143Z,16.65
2024-01-25T02:52:02.044Z,17.80
2024-01-25T02:56:53.889Z,17.63
2024-01-25T03:01:46.823Z,18.85
2024-01-25T03:06:39.110Z,17.98
2024-01-25T03:11:31.263Z,17.10
2024-01-25T03:16:23.139Z,18.15
2024-01-25T03:21:15.079Z,18.83
2024-01-25T03:26:06.965Z,17.75
2024-01-25T03:30:58.907Z,18.38
2024-01-25T03:35:50.989Z,18.95
2024-01-25T03:40:44.271Z,19.23
2024-01-25T03:45:37.430Z,18.60
2024-01-25T03:50:29.339Z,18.90
2024-01-25T03:55:21.242Z,18.67
2024-01-25T04:00:13.742Z,17.75
2024-01-25T04:05:06.098Z,19.23
2024-01-25T04:09:58.062Z,18.23
2024-01-25T04:14:49.984Z,20.35
2024-01-25T04:19:43.400Z,19.60
2024-01-25T04:24:35.293Z,18.90
2024-01-25T04:29:27.075Z,19.13
2024-01-25T04:34:19.010Z,18.85
2024-01-25T04:39:11.049Z,19.42
2024-01-25T04:44:02.989Z,19.38
2024-01-25T04:48:54.981Z,18.60
2024-01-25T04:53:47.545Z,16.85
2024-01-25T04:58:39.299Z,18.73
2024-01-25T05:03:32.112Z,18.52
2024-01-25T05:08:24.708Z,17.92
2024-01-25T05:13:17.344Z,18.15
2024-01-25T05:18:09.259Z,17.50
2024-01-25T05:23:02.587Z,17.40
2024-01-25T05:27:55.117Z,16.83
2024-01-25T05:32:47.540Z,17.33
2024-01-25T05:37:39.369Z,16.83
2024-01-25T05:42:31.154Z,17.17
2024-01-25T05:47:23.132Z,16.35
2024-01-25T05:52:15.678Z,17.60
2024-01-25T05:57:07.494Z,16.63
2024-01-25T06:01:59.356Z,17.40
2024-01-25T06:06:51.502Z,17.55
2024-01-25T06:11:43.857Z,15.88
2024-01-25T06:16:35.783Z,17.25
2024-01-25T06:21:27.589Z,18.55
2024-01-25T06:26:19.386Z,17.65
2024-01-25T06:31:12.240Z,19.00
2024-01-25T06:36:04.785Z,18.33
2024-01-25T06:40:56.709Z,17.70
2024-01-25T06:45:48.576Z,16.90
2024-01-25T06:50:40.610Z,17.17
2024-01-25T06:55:32.583Z,17.77
2024-01-25T07:00:24.883Z,17.23
2024-01-25T07:05:17.417Z,17.00
2024-01-25T07:10:10.170Z,17.05
2024-01-25T07:15:02.442Z,17.25
2024-01-25T07:19:54.443Z,19.58
2024-01-25T07:24:46.367Z,19.48
2024-01-25T07:29:38.448Z,18.83
2024-01-25T07:34:30.534Z,19.30
2024-01-25T07:39:22.385Z,21.10
2024-01-25T07:44:14.684Z,22.45
2024-01-25T07:49:06.868Z,20.65
2024-01-25T07:53:58.777Z,20.77
2024-01-25T07:58:50.708Z,21.05
2024-01-25T08:03:42.745Z,20.38
2024-01-25T08:08:34.588Z,20.90
2024-01-25T08:13:26.627Z,21.92
2024-01-25T08:18:20.459Z,22.77
2024-01-25T08:23:12.946Z,22.80
2024-01-25T08:28:05.047Z,21.13
2024-01-25T08:32:57.147Z,20.85
2024-01-25T08:37:50.421Z,21.38
2024-01-25T08:42:42.435Z,22.13
2024-01-25T08:47:34.318Z,21.80
2024-01-25T08:52:26.292Z,22.73
2024-01-25T08:57:18.862Z,21.27
2024-01-25T09:02:11.640Z,22.55
2024-01-25T09:07:04.138Z,22.60
2024-01-25T09:11:55.975Z,23.67
2024-01-25T09:16:47.771Z,22.70
2024-01-25T09:21:41.259Z,25.23
2024-01-25T09:26:33.508Z,24.15
2024-01-25T09:31:25.696Z,26.23
2024-01-25T09:36:18.496Z,27.17
2024-01-25T09:41:10.883Z,27.40
2024-01-25T09:46:03.624Z,27.95
2024-01-25T09:50:57.106Z,28.50
2024-01-25T09:56:17.455Z,27.17
2024-01-25T10:01:12.384Z,28.40
2024-01-25T10:06:06.408Z,28.25
2024-01-25T10:10:58.454Z,29.17
2024-01-25T10:15:50.636Z,31.90
2024-01-25T10:20:44.377Z,35.35
2024-01-25T10:25:37.892Z,38.25
2024-01-25T10:30:34.605Z,35.42
2024-01-25T10:35:30.686Z,39.22
2024-01-25T10:40:23.498Z,38.03
2024-01-25T10:45:16.076Z,34.05
2024-01-25T10:50:14.765Z,35.03
2024-01-25T10:55:09.413Z,37.47
2024-01-25T11:00:05.109Z,38.80
2024-01-25T11:04:57.220Z,42.40
2024-01-25T11:09:53.033Z,46.22
2024-01-25T11:14:45.070Z,42.80
2024-01-25T11:19:39.980Z,43.03
2024-01-25T11:24:40.594Z,41.67
2024-01-25T11:29:33.225Z,39.65
2024-01-25T11:34:25.479Z,42.85
2024-01-25T11:39:18.158Z,43.88
2024-01-25T11:44:13.919Z,47.65
2024-01-25T11:49:06.200Z,43.65
2024-01-25T11:53:58.051Z,46.80
2024-01-25T11:58:50.743Z,51.50
2024-01-25T12:03:43.257Z,44.25
2024-01-25T12:08:35.268Z,47.63
2024-01-25T12:13:27.079Z,51.10
2024-01-25T12:18:19.104Z,47.58
2024-01-25T12:23:10.979Z,47.47
2024-01-25T12:28:04.516Z,47.95
2024-01-25T12:32:57.751Z,55.40
2024-01-25T12:37:49.673Z,52.97
2024-01-25T12:42:42.084Z,51.38
2024-01-25T12:47:34.193Z,49.17
2024-01-25T12:52:26.290Z,52.67
2024-01-25T12:57:18.263Z,52.45
2024-01-25T13:02:11.011Z,53.88
2024-01-25T13:07:02.916Z,46.65
2024-01-25T13:11:54.831Z,52.15
2024-01-25T13:16:46.789Z,48.90
2024-01-25T13:21:39.652Z,50.22
2024-01-25T13:26:31.508Z,54.67
2024-01-25T13:31:23.565Z,56.20
2024-01-25T13:36:15.821Z,47.20
2024-01-25T13:41:08.071Z,54.20
2024-01-25T13:45:59.930Z,49.08
2024-01-25T13:50:53.746Z,51.22
2024-01-25T13:55:45.898Z,58.25
2024-01-25T14:00:38.131Z,50.85
2024-01-25T14:05:30.005Z,53.80
2024-01-25T14:10:21.976Z,53.90
2024-01-25T14:15:14.095Z,53.63
2024-01-25T14:20:07.031Z,56.25
2024-01-25T14:24:59.196Z,58.10
2024-01-25T14:29:51.723Z,56.38
2024-01-25T14:34:44.116Z,51.95
2024-01-25T14:39:43.134Z,55.55
2024-01-25T14:44:36.713Z,61.15
2024-01-25T14:49:28.695Z,55.95
2024-01-25T14:54:20.811Z,49.33
2024-01-25T14:59:12.671Z,61.25
2024-01-25T15:04:04.652Z,61.83
2024-01-25T15:08:56.686Z,61.13
2024-01-25T15:13:49.948Z,60.92
2024-01-25T15:18:42.214Z,70.15
2024-01-25T15:23:34.226Z,70.97
2024-01-25T15:28:26.066Z,72.13
2024-01-25T15:33:17.963Z,58.08
2024-01-25T15:38:10.450Z,59.17
2024-01-25T15:43:02.297Z,77.22
2024-01-25T15:47:54.143Z,60.85
2024-01-25T15:52:46.682Z,56.85
2024-01-25T15:57:38.556Z,56.35
2024-01-25T16:02:30.441Z,57.45
2024-01-25T16:07:22.198Z,60.17
2024-01-25T16:12:14.017Z,67.65
2024-01-25T16:17:06.155Z,58.72
2024-01-25T16:21:58.804Z,58.50
2024-01-25T16:26:50.686Z,60.90
2024-01-25T16:31:42.582Z,52.90
2024-01-25T16:36:34.556Z,54.65
2024-01-25T16:41:26.649Z,54.28
2024-01-25T16:46:18.796Z,55.58
2024-01-25T16:51:10.686Z,52.67
2024-01-25T16:56:02.589Z,57.13
2024-01-25T17:00:55.146Z,60.28
2024-01-25T17:05:47.375Z,64.75
2024-01-25T17:10:39.236Z,64.05
2024-01-25T17:15:31.064Z,58.55
2024-01-25T17:20:22.863Z,67.78
2024-01-25T17:25:14.750Z,64.70
2024-01-25T17:30:07.848Z,66.10
2024-01-25T17:34:59.810Z,68.82
2024-01-25T17:39:51.882Z,67.68
2024-01-25T17:44:43.806Z,64.05
2024-01-25T17:49:35.730Z,63.05
2024-01-25T17:54:27.662Z,67.82
2024-01-25T17:59:19.539Z,71.00
2024-01-25T18:04:11.428Z,68.68
2024-01-25T18:09:03.261Z,65.03
2024-01-25T18:13:55.029Z,72.20
2024-01-25T18:18:46.938Z,64.53
2024-01-25T18:23:39.767Z,73.10
2024-01-25T18:28:31.667Z,72.20
2024-01-25T18:33:23.625Z,70.32
2024-01-25T18:38:15.515Z,71.43
2024-01-25T18:43:07.398Z,68.28
2024-01-25T18:47:59.376Z,70.18
2024-01-25T18:52:51.334Z,67.22
2024-01-25T18:57:43.965Z,69.93
2024-01-25T19:02:37.036Z,66.65
2024-01-25T19:07:29.171Z,69.13
2024-01-25T19:12:21.661Z,71.95
2024-01-25T19:17:13.642Z,71.50
2024-01-25T19:22:06.360Z,66.38
2024-01-25T19:26:58.514Z,70.03
2024-01-25T19:31:50.538Z,65.93
2024-01-25T19:36:44.692Z,76.03
2024-01-25T19:41:36.907Z,70.95
2024-01-25T19:46:28.682Z,66.20
2024-01-25T19:51:20.642Z,70.20
2024-01-25T19:56:12.543Z,62.67
2024-01-25T20:01:05.124Z,61.00
2024-01-25T20:05:57.353Z,63.95
2024-01-25T20:10:49.118Z,60.55
2024-01-25T20:15:41.085Z,63.00
2024-01-25T20:20:42.372Z,60.58
2024-01-25T20:25:37.847Z,58.75
2024-01-25T20:30:32.509Z,52.72
2024-01-25T20:35:24.351Z,53.83
2024-01-25T20:40:16.298Z,49.13
2024-01-25T20:45:08.653Z,48.97
2024-01-25T20:50:00.664Z,52.58
2024-01-25T20:54:52.700Z,50.03
2024-01-25T20:59:44.524Z,46.30
2024-01-25T21:04:36.579Z,47.15
2024-01-25T21:09:28.712Z,50.15
2024-01-25T21:14:20.877Z,48.47
2024-01-25T21:19:12.860Z,45.90
2024-01-25T21:24:05.057Z,45.25
2024-01-25T21:28:56.836Z,43.58
2024-01-25T21:33:49.088Z,42.65
2024-01-25T21:38:40.941Z,43.67
2024-01-25T21:43:32.707Z,42.97
2024-01-25T21:48:24.622Z,41.42
2024-01-25T21:53:16.602Z,45.60
2024-01-25T21:58:09.201Z,40.58
2024-01-25T22:03:01.537Z,40.67
2024-01-25T22:07:55.788Z,40.05
2024-01-25T22:12:49.190Z,41.05
2024-01-25T22:17:41.336Z,39.10
2024-01-25T22:22:33.177Z,40.95
2024-01-25T22:27:25.066Z,39.75
2024-01-25T22:32:16.967Z,40.00
2024-01-25T22:37:08.815Z,41.30
2024-01-25T22:42:00.653Z,37.50
2024-01-25T22:46:59.077Z,41.97
2024-01-25T22:51:54.741Z,41.17
2024-01-25T22:56:49.378Z,38.95
2024-01-25T23:01:41.988Z,41.08
2024-01-25T23:06:33.833Z,40.95
2024-01-25T23:11:27.359Z,40.03
2024-01-25T23:16:20.927Z,40.47
2024-01-25T23:21:12.978Z,40.88
2024-01-25T23:26:04.838Z,42.45
2024-01-25T23:30:57.223Z,38.50
2024-01-25T23:35:49.377Z,41.30
2024-01-25T23:40:41.443Z,45.22
2024-01-25T23:45:33.434Z,43.22
2024-01-25T23:50:25.569Z,43.63
2024-01-25T23:55:17.788Z,39.72
